createdAt,value
2019-01-18T00:01:26.874Z,3.67
2019-01-18T00:03:56.267Z,3.50
2019-01-18T00:06:25.507Z,3.63
2019-01-18T00:08:54.733Z,4.23
2019-01-18T00:11:24.013Z,5.30
2019-01-18T00:13:53.330Z,5.47
2019-01-18T00:16:22.660Z,5.53
2019-01-18T00:18:52.085Z,4.40
2019-01-18T00:21:21.690Z,4.23
2019-01-18T00:23:51.004Z,5.00
2019-01-18T00:26:20.353Z,3.60
2019-01-18T00:28:49.564Z,4.20
2019-01-18T00:31:18.817Z,3.93
2019-01-18T00:33:48.105Z,4.30
2019-01-18T00:36:17.321Z,3.70
2019-01-18T00:38:46.593Z,4.30
2019-01-18T00:41:15.883Z,3.50
2019-01-18T00:43:45.102Z,3.30
2019-01-18T00:46:16.460Z,3.40
2019-01-18T00:48:45.735Z,3.53
2019-01-18T00:51:15.041Z,4.03
2019-01-18T00:53:44.301Z,3.53
2019-01-18T00:56:13.545Z,3.40
2019-01-18T00:58:42.753Z,3.50
2019-01-18T01:01:11.945Z,3.20
2019-01-18T01:03:41.222Z,2.70
2019-01-18T01:06:10.480Z,3.20
2019-01-18T01:08:39.742Z,3.57
2019-01-18T01:11:09.093Z,2.73
2019-01-18T01:13:38.384Z,2.73
2019-01-18T01:16:07.620Z,3.13
2019-01-18T01:18:36.873Z,3.13
2019-01-18T01:21:06.087Z,2.90
2019-01-18T01:23:35.293Z,3.27
2019-01-18T01:26:04.723Z,2.97
2019-01-18T01:28:33.965Z,3.07
2019-01-18T01:31:03.207Z,3.17
2019-01-18T01:33:32.549Z,3.00
2019-01-18T01:36:01.792Z,2.95
2019-01-18T01:38:31.092Z,3.03
2019-01-18T01:41:00.470Z,2.67
2019-01-18T01:43:29.717Z,2.93
2019-01-18T01:45:58.958Z,2.77
2019-01-18T01:48:28.211Z,2.60
2019-01-18T01:50:57.464Z,2.63
2019-01-18T01:53:26.677Z,2.80
2019-01-18T01:55:55.911Z,3.60
2019-01-18T01:58:25.219Z,3.67
2019-01-18T02:00:54.480Z,2.77
2019-01-18T02:03:23.780Z,3.23
2019-01-18T02:05:53.002Z,3.27
2019-01-18T02:08:22.290Z,3.47
2019-01-18T02:10:51.594Z,2.57
2019-01-18T02:13:20.814Z,2.77
2019-01-18T02:15:50.434Z,2.10
2019-01-18T02:18:19.680Z,2.20
2019-01-18T02:20:48.968Z,1.80
2019-01-18T02:23:18.174Z,1.97
2019-01-18T02:25:47.414Z,2.17
2019-01-18T02:28:16.689Z,1.97
2019-01-18T02:30:45.945Z,1.73
2019-01-18T02:33:15.280Z,2.20
2019-01-18T02:35:44.509Z,2.30
2019-01-18T02:38:13.727Z,2.33
2019-01-18T02:40:43.054Z,2.70
2019-01-18T02:43:12.302Z,3.00
2019-01-18T02:45:41.537Z,3.10
2019-01-18T02:48:10.779Z,3.00
2019-01-18T02:50:40.088Z,2.60
2019-01-18T02:53:09.293Z,2.47
2019-01-18T02:55:38.560Z,2.00
2019-01-18T02:58:07.778Z,1.63
2019-01-18T03:00:37.000Z,1.33
2019-01-18T03:03:06.251Z,1.43
2019-01-18T03:05:35.493Z,1.90
2019-01-18T03:08:04.831Z,1.60
2019-01-18T03:10:34.817Z,2.10
2019-01-18T03:13:04.205Z,1.30
2019-01-18T03:15:33.443Z,1.60
2019-01-18T03:18:02.873Z,2.10
2019-01-18T03:20:33.335Z,2.03
2019-01-18T03:23:02.621Z,1.57
2019-01-18T03:25:31.945Z,1.90
2019-01-18T03:28:01.190Z,1.37
2019-01-18T03:30:30.417Z,1.83
2019-01-18T03:32:59.800Z,1.63
2019-01-18T03:35:29.090Z,1.93
2019-01-18T03:37:58.407Z,1.93
2019-01-18T03:40:27.673Z,1.90
2019-01-18T03:42:56.921Z,2.20
2019-01-18T03:45:26.145Z,2.10
2019-01-18T03:47:55.400Z,1.60
2019-01-18T03:50:26.642Z,1.90
2019-01-18T03:52:56.065Z,1.53
2019-01-18T03:55:25.410Z,1.60
2019-01-18T03:57:54.654Z,2.40
2019-01-18T04:00:29.002Z,1.93
2019-01-18T04:02:58.323Z,2.30
2019-01-18T04:05:27.866Z,1.73
2019-01-18T04:07:57.107Z,2.40
2019-01-18T04:10:26.416Z,2.37
2019-01-18T04:12:55.803Z,2.23
2019-01-18T04:15:25.462Z,2.03
2019-01-18T04:17:54.861Z,2.50
2019-01-18T04:20:24.652Z,2.20
2019-01-18T04:22:53.896Z,2.40
2019-01-18T04:25:29.443Z,2.70
2019-01-18T04:27:58.724Z,2.30
2019-01-18T04:30:33.270Z,2.90
2019-01-18T04:32:58.973Z,3.00
2019-01-18T04:35:28.228Z,2.90
2019-01-18T04:37:57.531Z,2.93
2019-01-18T04:40:27.571Z,3.30
2019-01-18T04:42:56.946Z,3.00
2019-01-18T04:45:26.192Z,3.70
2019-01-18T04:47:55.399Z,3.90
2019-01-18T04:50:26.273Z,3.93
2019-01-18T04:52:55.729Z,4.63
2019-01-18T04:55:24.940Z,4.43
2019-01-18T04:57:54.290Z,4.70
2019-01-18T05:00:28.464Z,4.13
2019-01-18T05:02:58.126Z,4.30
2019-01-18T05:05:27.363Z,4.47
2019-01-18T05:07:56.751Z,5.17
2019-01-18T05:10:27.547Z,4.00
2019-01-18T05:12:56.801Z,4.67
2019-01-18T05:15:28.298Z,4.23
2019-01-18T05:17:57.681Z,3.67
2019-01-18T05:20:26.974Z,3.37
2019-01-18T05:22:56.208Z,4.73
2019-01-18T05:25:25.441Z,3.43
2019-01-18T05:27:54.641Z,3.70
2019-01-18T05:30:25.830Z,4.03
2019-01-18T05:32:55.173Z,3.27
2019-01-18T05:35:24.389Z,4.10
2019-01-18T05:37:53.602Z,3.50
2019-01-18T05:40:22.903Z,3.70
2019-01-18T05:42:52.218Z,4.00
2019-01-18T05:45:21.924Z,4.37
2019-01-18T05:47:51.254Z,3.70
2019-01-18T05:50:22.645Z,3.03
2019-01-18T05:52:51.947Z,3.43
2019-01-18T05:55:21.433Z,2.90
2019-01-18T05:57:50.699Z,3.03
2019-01-18T06:00:28.817Z,3.67
2019-01-18T06:02:58.057Z,2.50
2019-01-18T06:05:28.636Z,2.80
2019-01-18T06:07:58.029Z,3.53
2019-01-18T06:10:27.254Z,3.67
2019-01-18T06:12:56.474Z,3.70
2019-01-18T06:15:25.765Z,2.83
2019-01-18T06:17:55.021Z,3.77
2019-01-18T06:20:24.283Z,3.40
2019-01-18T06:22:53.519Z,3.20
2019-01-18T06:25:22.851Z,3.83
2019-01-18T06:27:52.190Z,3.93
2019-01-18T06:30:21.630Z,3.20
2019-01-18T06:32:50.848Z,4.30
2019-01-18T06:35:20.077Z,3.60
2019-01-18T06:37:49.435Z,4.23
2019-01-18T06:40:18.722Z,4.30
2019-01-18T06:42:47.948Z,4.33
2019-01-18T06:45:18.665Z,4.67
2019-01-18T06:47:47.893Z,3.83
2019-01-18T06:50:18.709Z,4.50
2019-01-18T06:52:48.046Z,4.37
2019-01-18T06:55:23.405Z,4.13
2019-01-18T06:57:54.971Z,4.57
2019-01-18T07:00:29.210Z,4.60
2019-01-18T07:02:58.506Z,4.53
2019-01-18T07:05:27.819Z,5.50
2019-01-18T07:07:57.053Z,7.77
2019-01-18T07:10:26.437Z,4.07
2019-01-18T07:12:55.676Z,9.27
2019-01-18T07:15:24.895Z,5.60
2019-01-18T07:17:54.237Z,4.97
2019-01-18T07:20:23.527Z,5.20
2019-01-18T07:22:52.841Z,5.43
2019-01-18T07:25:27.355Z,4.37
2019-01-18T07:27:56.610Z,4.60
2019-01-18T07:30:28.601Z,3.60
2019-01-18T07:32:57.829Z,3.83
2019-01-18T07:35:27.067Z,3.57
2019-01-18T07:37:56.314Z,3.90
2019-01-18T07:40:26.206Z,3.20
2019-01-18T07:43:14.702Z,2.47
2019-01-18T07:45:43.987Z,3.80
2019-01-18T07:48:13.387Z,3.47
2019-01-18T07:50:42.634Z,2.43
2019-01-18T07:53:11.974Z,3.23
2019-01-18T07:55:41.202Z,3.33
2019-01-18T07:58:10.442Z,3.83
2019-01-18T08:00:39.695Z,2.90
2019-01-18T08:03:08.914Z,2.80
2019-01-18T08:05:38.145Z,3.13
2019-01-18T08:08:07.513Z,5.33
2019-01-18T08:10:36.736Z,3.20
2019-01-18T08:13:06.009Z,3.30
2019-01-18T08:15:35.251Z,3.90
2019-01-18T08:18:04.586Z,3.80
2019-01-18T08:20:33.923Z,3.77
2019-01-18T08:23:03.510Z,3.40
2019-01-18T08:25:32.770Z,3.60
2019-01-18T08:28:03.000Z,3.03
2019-01-18T08:30:32.707Z,3.17
2019-01-18T08:33:02.022Z,3.53
2019-01-18T08:35:31.785Z,2.83
2019-01-18T08:38:01.197Z,3.30
2019-01-18T08:40:38.847Z,4.03
2019-01-18T08:43:10.136Z,7.20
2019-01-18T08:46:03.043Z,4.27
2019-01-18T08:48:32.331Z,4.40
2019-01-18T08:51:01.595Z,3.55
2019-01-18T08:53:30.878Z,4.33
2019-01-18T08:56:00.208Z,4.17
2019-01-18T08:58:29.453Z,6.13
2019-01-18T09:01:17.869Z,4.23
2019-01-18T09:03:47.133Z,4.67
2019-01-18T09:06:16.397Z,5.00
2019-01-18T09:08:45.734Z,3.87
2019-01-18T09:11:15.005Z,5.27
2019-01-18T09:13:44.353Z,4.93
2019-01-18T09:16:13.782Z,6.20
2019-01-18T09:18:43.008Z,4.40
2019-01-18T09:21:12.309Z,5.20
2019-01-18T09:23:41.598Z,5.53
2019-01-18T09:26:10.847Z,4.60
2019-01-18T09:28:40.259Z,5.10
2019-01-18T09:31:09.645Z,4.00
2019-01-18T09:33:38.857Z,4.60
2019-01-18T09:36:08.182Z,3.97
2019-01-18T09:38:37.550Z,3.67
2019-01-18T09:41:06.794Z,4.40
2019-01-18T09:43:36.176Z,4.13
2019-01-18T09:46:05.434Z,4.87
2019-01-18T09:48:34.753Z,4.73
2019-01-18T09:51:04.240Z,4.63
2019-01-18T09:53:33.530Z,4.95
2019-01-18T09:56:02.789Z,3.83
2019-01-18T09:58:32.009Z,3.90
2019-01-18T10:01:02.789Z,3.93
2019-01-18T10:03:32.245Z,4.17
2019-01-18T10:06:01.618Z,4.57
2019-01-18T10:08:31.016Z,3.40
2019-01-18T10:11:00.280Z,4.10
2019-01-18T10:13:29.569Z,3.07
2019-01-18T10:15:58.906Z,3.93
2019-01-18T10:18:28.137Z,4.17
2019-01-18T10:20:57.355Z,3.90
2019-01-18T10:23:26.712Z,14.63
2019-01-18T10:25:56.135Z,13.47
2019-01-18T10:28:25.360Z,3.90
2019-01-18T10:30:54.728Z,17.07
2019-01-18T10:33:24.014Z,5.40
2019-01-18T10:35:53.326Z,8.90
2019-01-18T10:38:22.638Z,4.60
2019-01-18T10:40:51.933Z,3.37
2019-01-18T10:43:21.137Z,2.90
2019-01-18T10:45:50.478Z,8.20
2019-01-18T10:48:19.685Z,5.03
2019-01-18T10:50:48.921Z,5.23
2019-01-18T10:53:18.194Z,11.27
2019-01-18T10:55:47.502Z,3.77
2019-01-18T10:58:16.734Z,9.70
2019-01-18T11:00:46.090Z,20.87
2019-01-18T11:03:15.382Z,20.47
2019-01-18T11:05:44.729Z,10.43
2019-01-18T11:08:17.381Z,13.17
2019-01-18T11:10:44.994Z,9.60
2019-01-18T11:13:14.257Z,15.73
2019-01-18T11:15:43.551Z,18.20
2019-01-18T11:18:12.842Z,11.47
2019-01-18T11:21:20.109Z,9.63
2019-01-18T11:23:51.469Z,17.20
2019-01-18T11:26:20.882Z,7.60
2019-01-18T11:28:50.168Z,11.17
2019-01-18T11:31:23.319Z,13.27
2019-01-18T11:33:50.461Z,6.93
2019-01-18T11:36:19.773Z,8.87
2019-01-18T11:38:49.079Z,12.77
2019-01-18T11:41:18.469Z,3.43
2019-01-18T11:43:47.709Z,3.30
2019-01-18T11:46:16.958Z,10.83
2019-01-18T11:48:50.279Z,10.67
2019-01-18T11:51:17.334Z,6.50
2019-01-18T11:53:46.566Z,11.27
2019-01-18T11:56:15.822Z,9.80
2019-01-18T11:58:45.082Z,8.40
2019-01-18T12:01:14.373Z,5.67
2019-01-18T12:03:43.617Z,4.37
2019-01-18T12:06:12.982Z,3.07
2019-01-18T12:08:42.245Z,3.10
2019-01-18T12:11:11.494Z,3.60
2019-01-18T12:13:40.866Z,6.47
2019-01-18T12:16:10.214Z,3.90
2019-01-18T12:18:39.470Z,4.00
2019-01-18T12:21:08.703Z,5.43
2019-01-18T12:23:37.959Z,4.00
2019-01-18T12:26:07.279Z,3.30
2019-01-18T12:28:36.569Z,4.40
2019-01-18T12:31:05.809Z,3.40
2019-01-18T12:33:35.048Z,3.80
2019-01-18T12:36:04.322Z,3.50
2019-01-18T12:38:33.639Z,3.20
2019-01-18T12:41:02.950Z,4.20
2019-01-18T12:43:32.286Z,4.67
2019-01-18T12:46:01.506Z,3.30
2019-01-18T12:48:30.751Z,3.00
2019-01-18T12:51:00.127Z,3.00
2019-01-18T12:53:29.502Z,2.97
2019-01-18T12:55:58.940Z,4.20
2019-01-18T12:58:28.169Z,3.77
2019-01-18T13:00:57.509Z,3.50
2019-01-18T13:03:26.758Z,4.30
2019-01-18T13:05:56.353Z,4.57
2019-01-18T13:08:25.578Z,2.83
2019-01-18T13:10:54.958Z,3.20
2019-01-18T13:13:24.270Z,3.90
2019-01-18T13:16:23.925Z,2.40
2019-01-18T13:18:59.468Z,2.67
2019-01-18T13:21:28.800Z,2.03
2019-01-18T13:23:58.034Z,2.57
2019-01-18T13:26:27.258Z,5.10
2019-01-18T13:28:57.369Z,2.40
2019-01-18T13:31:26.637Z,4.80
2019-01-18T13:33:55.865Z,3.20
2019-01-18T13:36:25.163Z,6.33
2019-01-18T13:38:54.516Z,6.00
2019-01-18T13:41:23.826Z,8.67
2019-01-18T13:43:53.104Z,8.40
2019-01-18T13:46:22.344Z,6.43
2019-01-18T13:48:51.563Z,4.40
2019-01-18T13:51:22.365Z,2.73
2019-01-18T13:53:51.601Z,2.57
2019-01-18T13:56:20.865Z,3.50
2019-01-18T13:58:50.078Z,6.27
2019-01-18T14:01:19.366Z,10.33
2019-01-18T14:03:48.605Z,3.70
2019-01-18T14:06:17.863Z,4.80
2019-01-18T14:08:47.162Z,3.10
2019-01-18T14:11:17.645Z,3.20
2019-01-18T14:13:46.886Z,2.97
2019-01-18T14:16:16.163Z,3.50
2019-01-18T14:18:45.395Z,3.40
2019-01-18T14:21:14.598Z,3.23
2019-01-18T14:23:43.858Z,6.87
2019-01-18T14:26:13.201Z,5.20
2019-01-18T14:28:42.501Z,4.87
2019-01-18T14:31:12.346Z,4.30
2019-01-18T14:33:41.608Z,4.67
2019-01-18T14:36:14.546Z,4.77
2019-01-18T14:38:41.927Z,6.73
2019-01-18T14:41:15.768Z,3.67
2019-01-18T14:43:45.294Z,4.07
2019-01-18T14:46:14.672Z,3.57
2019-01-18T14:48:44.556Z,4.13
2019-01-18T14:51:13.891Z,3.47
2019-01-18T14:53:43.235Z,3.13
2019-01-18T14:56:12.495Z,3.70
2019-01-18T14:58:41.815Z,3.43
2019-01-18T15:01:11.049Z,3.40
2019-01-18T15:03:40.387Z,3.60
2019-01-18T15:06:09.944Z,3.00
2019-01-18T15:08:39.181Z,3.20
2019-01-18T15:11:09.954Z,3.37
2019-01-18T15:13:39.202Z,3.30
2019-01-18T15:16:08.418Z,3.50
2019-01-18T15:18:38.499Z,3.73
2019-01-18T15:21:07.829Z,3.20
2019-01-18T15:23:37.283Z,2.87
2019-01-18T15:26:06.647Z,4.20
2019-01-18T15:28:35.935Z,3.57
2019-01-18T15:31:12.436Z,4.17
2019-01-18T15:33:43.565Z,3.50
2019-01-18T15:36:12.853Z,3.70
2019-01-18T15:38:42.108Z,11.77
2019-01-18T15:41:11.510Z,7.60
2019-01-18T15:43:40.904Z,5.37
2019-01-18T15:46:10.226Z,6.13
2019-01-18T15:48:39.560Z,6.03
2019-01-18T15:51:08.816Z,9.17
2019-01-18T15:53:38.128Z,6.10
2019-01-18T15:56:07.433Z,9.00
2019-01-18T15:58:36.674Z,9.07
2019-01-18T16:01:05.907Z,11.03
2019-01-18T16:03:35.359Z,6.00
2019-01-18T16:06:05.528Z,6.83
2019-01-18T16:08:34.922Z,8.30
2019-01-18T16:11:04.631Z,8.20
2019-01-18T16:13:34.172Z,10.97
2019-01-18T16:16:40.019Z,8.30
2019-01-18T16:19:09.273Z,6.60
2019-01-18T16:21:38.516Z,7.50
2019-01-18T16:24:07.896Z,9.33
2019-01-18T16:26:37.301Z,10.00
2019-01-18T16:29:06.677Z,15.30
2019-01-18T16:31:36.095Z,6.57
2019-01-18T16:34:05.419Z,11.33
2019-01-18T16:36:34.713Z,11.13
2019-01-18T16:39:08.858Z,6.13
2019-01-18T16:41:38.194Z,10.37
2019-01-18T16:44:07.508Z,11.00
2019-01-18T16:46:36.829Z,8.93
2019-01-18T16:49:06.128Z,6.20
2019-01-18T16:51:35.393Z,7.90
2019-01-18T16:54:05.117Z,7.40
2019-01-18T16:56:34.469Z,12.07
2019-01-18T16:59:03.714Z,7.50
2019-01-18T17:01:33.094Z,8.07
2019-01-18T17:04:04.979Z,7.40
2019-01-18T17:06:34.311Z,14.23
2019-01-18T17:09:05.727Z,18.20
2019-01-18T17:11:35.132Z,13.53
2019-01-18T17:14:04.650Z,15.98
2019-01-18T17:16:34.014Z,11.70
2019-01-18T17:19:03.250Z,12.27
2019-01-18T17:21:42.614Z,13.53
2019-01-18T17:24:11.938Z,14.67
2019-01-18T17:26:41.186Z,17.83
2019-01-18T17:29:10.614Z,15.03
2019-01-18T17:31:39.918Z,10.03
2019-01-18T17:34:10.856Z,10.97
2019-01-18T17:36:53.802Z,14.87
2019-01-18T17:39:50.539Z,11.93
2019-01-18T17:42:59.405Z,14.20
2019-01-18T17:46:07.362Z,11.17
2019-01-18T17:48:52.487Z,8.30
2019-01-18T17:52:08.813Z,7.57
2019-01-18T17:55:11.310Z,14.57
2019-01-18T17:58:04.543Z,6.70
2019-01-18T18:01:18.207Z,22.40
2019-01-18T18:04:46.728Z,30.03
2019-01-18T18:08:00.251Z,48.27
2019-01-18T18:11:06.855Z,28.37
2019-01-18T18:14:01.977Z,17.53
2019-01-18T18:17:04.201Z,22.00
2019-01-18T18:20:32.862Z,8.40
2019-01-18T18:23:11.798Z,7.93
2019-01-18T18:26:14.768Z,9.67
2019-01-18T18:29:25.197Z,8.23
2019-01-18T18:32:16.915Z,9.07
2019-01-18T18:35:36.330Z,10.33
2019-01-18T18:38:37.950Z,14.77
2019-01-18T18:41:35.316Z,12.53
2019-01-18T18:44:22.751Z,9.73
2019-01-18T18:47:15.519Z,8.30
2019-01-18T18:50:20.710Z,15.83
2019-01-18T18:53:13.746Z,19.43
2019-01-18T18:56:27.202Z,21.73
2019-01-18T18:59:20.197Z,23.93
2019-01-18T19:02:18.180Z,26.80
2019-01-18T19:04:57.766Z,18.43
2019-01-18T19:08:05.378Z,20.30
2019-01-18T19:11:15.719Z,14.63
2019-01-18T19:14:21.106Z,12.83
2019-01-18T19:17:30.096Z,14.30
2019-01-18T19:20:42.017Z,11.60
2019-01-18T19:23:22.629Z,23.97
2019-01-18T19:26:12.410Z,20.17
2019-01-18T19:29:05.492Z,16.13
2019-01-18T19:32:22.749Z,22.53
2019-01-18T19:35:05.348Z,15.73
2019-01-18T19:38:01.278Z,17.97
2019-01-18T19:41:13.899Z,11.67
2019-01-18T19:44:19.059Z,14.23
2019-01-18T19:47:16.354Z,7.80
2019-01-18T19:50:19.330Z,8.77
2019-01-18T19:53:02.134Z,7.23
2019-01-18T19:55:57.903Z,6.57
2019-01-18T19:59:13.182Z,5.97
2019-01-18T20:01:54.618Z,6.43
2019-01-18T20:04:52.398Z,7.00
2019-01-18T20:08:10.578Z,5.23
2019-01-18T20:11:29.900Z,6.65
2019-01-18T20:14:46.218Z,7.20
2019-01-18T20:17:25.919Z,9.50
2019-01-18T20:20:38.887Z,11.10
2019-01-18T20:23:42.250Z,7.90
2019-01-18T20:26:32.630Z,10.20
2019-01-18T20:29:42.113Z,6.57
2019-01-18T20:32:47.380Z,7.50
2019-01-18T20:35:57.966Z,6.93
2019-01-18T20:38:57.726Z,8.50
2019-01-18T20:41:55.960Z,16.73
2019-01-18T20:45:03.184Z,12.93
2019-01-18T20:48:08.054Z,8.30
2019-01-18T20:51:05.903Z,12.50
2019-01-18T20:54:10.690Z,10.80
2019-01-18T20:56:53.166Z,11.30
2019-01-18T20:59:45.134Z,5.93
2019-01-18T21:02:38.363Z,5.00
2019-01-18T21:05:57.751Z,5.03
2019-01-18T21:08:58.560Z,5.70
2019-01-18T21:11:55.252Z,5.07
2019-01-18T21:15:09.689Z,5.17
2019-01-18T21:18:12.498Z,10.13
2019-01-18T21:21:02.367Z,14.60
2019-01-18T21:24:21.948Z,12.20
2019-01-18T21:26:59.987Z,20.40
2019-01-18T21:30:01.816Z,20.37
2019-01-18T21:33:05.311Z,20.00
2019-01-18T21:35:59.558Z,23.63
2019-01-18T21:39:01.770Z,15.73
2019-01-18T21:42:27.770Z,14.20
2019-01-18T21:45:28.881Z,7.93
2019-01-18T21:48:51.360Z,6.90
2019-01-18T21:52:06.562Z,9.93
2019-01-18T21:55:12.036Z,7.73
2019-01-18T21:58:28.807Z,7.43
2019-01-18T22:01:56.845Z,8.80
2019-01-18T22:04:47.711Z,6.90
2019-01-18T22:08:09.916Z,7.63
2019-01-18T22:11:06.725Z,6.30
2019-01-18T22:13:52.720Z,7.23
2019-01-18T22:17:08.853Z,6.57
2019-01-18T22:20:14.113Z,9.50
2019-01-18T22:23:19.286Z,8.98
2019-01-18T22:26:35.570Z,22.20
2019-01-18T22:29:48.942Z,27.87
2019-01-18T22:33:02.595Z,20.30
2019-01-18T22:36:11.202Z,18.67
2019-01-18T22:39:22.531Z,14.33
2019-01-18T22:42:23.912Z,14.13
2019-01-18T22:45:49.613Z,16.07
2019-01-18T22:48:50.615Z,10.47
2019-01-18T22:52:09.885Z,11.50
2019-01-18T22:55:01.420Z,29.17
2019-01-18T22:58:23.846Z,19.73
2019-01-18T23:01:43.643Z,14.77
2019-01-18T23:04:40.959Z,18.47
2019-01-18T23:08:09.446Z,18.10
2019-01-18T23:11:38.209Z,10.40
2019-01-18T23:14:43.209Z,14.77
2019-01-18T23:17:43.329Z,26.53
2019-01-18T23:20:54.501Z,18.30
2019-01-18T23:24:07.014Z,18.63
2019-01-18T23:27:10.793Z,17.47
2019-01-18T23:29:47.922Z,16.00
2019-01-18T23:32:51.982Z,17.23
2019-01-18T23:35:50.358Z,10.20
2019-01-18T23:38:58.991Z,13.23
2019-01-18T23:41:47.586Z,8.83
2019-01-18T23:44:56.184Z,16.73
2019-01-18T23:47:54.857Z,10.20
2019-01-18T23:51:04.252Z,12.60
2019-01-18T23:53:44.746Z,8.13
2019-01-18T23:56:49.899Z,7.53
2019-01-18T23:59:50.935Z,7.80
